sensor_id;sensor_type;location;lat;lon;timestamp;temperature;humidity
16995;DHT22;8614;48.522;9.206;2023-06-24T00:02:08;16.00;99.90
16995;DHT22;8614;48.522;9.206;2023-06-24T00:04:35;15.90;99.90
16995;DHT22;8614;48.522;9.206;2023-06-24T00:07:02;15.90;99.90
16995;DHT22;8614;48.522;9.206;2023-06-24T00:09:30;15.80;99.90
16995;DHT22;8614;48.522;9.206;2023-06-24T00:11:58;15.70;99.90
16995;DHT22;8614;48.522;9.206;2023-06-24T00:14:25;15.70;99.90
16995;DHT22;8614;48.522;9.206;2023-06-24T00:16:53;15.70;99.90
16995;DHT22;8614;48.522;9.206;2023-06-24T00:19:20;15.60;99.90
16995;DHT22;8614;48.522;9.206;2023-06-24T00:21:48;15.60;99.90
16995;DHT22;8614;48.522;9.206;2023-06-24T00:24:17;15.60;99.90
16995;DHT22;8614;48.522;9.206;2023-06-24T00:26:46;15.60;99.90
16995;DHT22;8614;48.522;9.206;2023-06-24T00:29:13;15.60;99.90
16995;DHT22;8614;48.522;9.206;2023-06-24T00:31:41;15.60;99.90
16995;DHT22;8614;48.522;9.206;2023-06-24T00:34:08;15.50;99.90
16995;DHT22;8614;48.522;9.206;2023-06-24T00:36:34;15.50;99.90
16995;DHT22;8614;48.522;9.206;2023-06-24T00:39:03;15.40;99.90
16995;DHT22;8614;48.522;9.206;2023-06-24T00:41:31;15.40;99.90
16995;DHT22;8614;48.522;9.206;2023-06-24T00:43:59;15.40;99.90
16995;DHT22;8614;48.522;9.206;2023-06-24T00:46:28;15.30;99.90
16995;DHT22;8614;48.522;9.206;2023-06-24T00:48:57;15.30;99.90
16995;DHT22;8614;48.522;9.206;2023-06-24T00:51:26;15.30;99.90
16995;DHT22;8614;48.522;9.206;2023-06-24T00:53:56;15.30;99.90
16995;DHT22;8614;48.522;9.206;2023-06-24T00:56:27;15.30;99.90
16995;DHT22;8614;48.522;9.206;2023-06-24T00:58:55;15.20;99.90
16995;DHT22;8614;48.522;9.206;2023-06-24T01:01:24;15.20;99.90
16995;DHT22;8614;48.522;9.206;2023-06-24T01:03:52;15.10;99.90
16995;DHT22;8614;48.522;9.206;2023-06-24T01:06:19;15.10;99.90
16995;DHT22;8614;48.522;9.206;2023-06-24T01:08:46;15.10;99.90
16995;DHT22;8614;48.522;9.206;2023-06-24T01:11:16;15.20;99.90
16995;DHT22;8614;48.522;9.206;2023-06-24T01:13:43;15.10;99.90
16995;DHT22;8614;48.522;9.206;2023-06-24T01:16:13;15.10;99.90
16995;DHT22;8614;48.522;9.206;2023-06-24T01:18:49;15.10;99.90
16995;DHT22;8614;48.522;9.206;2023-06-24T01:21:30;15.10;99.90
16995;DHT22;8614;48.522;9.206;2023-06-24T01:24:18;15.20;99.90
16995;DHT22;8614;48.522;9.206;2023-06-24T01:27:24;15.00;99.90
16995;DHT22;8614;48.522;9.206;2023-06-24T01:30:14;15.00;99.90
16995;DHT22;8614;48.522;9.206;2023-06-24T01:32:48;14.90;99.90
16995;DHT22;8614;48.522;9.206;2023-06-24T01:35:22;14.90;99.90
16995;DHT22;8614;48.522;9.206;2023-06-24T01:37:51;14.90;99.90
16995;DHT22;8614;48.522;9.206;2023-06-24T01:40:23;14.90;99.90
16995;DHT22;8614;48.522;9.206;2023-06-24T01:42:52;14.80;99.90
16995;DHT22;8614;48.522;9.206;2023-06-24T01:45:23;14.80;99.90
16995;DHT22;8614;48.522;9.206;2023-06-24T01:47:58;14.70;99.90
16995;DHT22;8614;48.522;9.206;2023-06-24T01:50:26;14.70;99.90
16995;DHT22;8614;48.522;9.206;2023-06-24T01:52:54;14.70;99.90
16995;DHT22;8614;48.522;9.206;2023-06-24T01:55:21;14.70;99.90
16995;DHT22;8614;48.522;9.206;2023-06-24T01:57:50;14.70;99.90
16995;DHT22;8614;48.522;9.206;2023-06-24T02:00:18;14.70;99.90
16995;DHT22;8614;48.522;9.206;2023-06-24T02:02:49;14.70;99.90
16995;DHT22;8614;48.522;9.206;2023-06-24T02:05:19;14.60;99.90
16995;DHT22;8614;48.522;9.206;2023-06-24T02:07:48;14.60;99.90
16995;DHT22;8614;48.522;9.206;2023-06-24T02:10:17;14.50;99.90
16995;DHT22;8614;48.522;9.206;2023-06-24T02:12:47;14.50;99.90
16995;DHT22;8614;48.522;9.206;2023-06-24T02:15:15;14.40;99.90
16995;DHT22;8614;48.522;9.206;2023-06-24T02:17:43;14.40;99.90
16995;DHT22;8614;48.522;9.206;2023-06-24T02:20:11;14.30;99.90
16995;DHT22;8614;48.522;9.206;2023-06-24T02:22:40;14.40;99.90
16995;DHT22;8614;48.522;9.206;2023-06-24T02:25:08;14.30;99.90
16995;DHT22;8614;48.522;9.206;2023-06-24T02:27:36;14.30;99.90
16995;DHT22;8614;48.522;9.206;2023-06-24T02:30:04;14.20;99.90
16995;DHT22;8614;48.522;9.206;2023-06-24T02:32:31;14.20;99.90
16995;DHT22;8614;48.522;9.206;2023-06-24T02:34:58;14.20;99.90
16995;DHT22;8614;48.522;9.206;2023-06-24T02:37:27;14.20;99.90
16995;DHT22;8614;48.522;9.206;2023-06-24T02:39:57;14.20;99.90
16995;DHT22;8614;48.522;9.206;2023-06-24T02:42:24;14.20;99.90
16995;DHT22;8614;48.522;9.206;2023-06-24T02:44:51;14.20;99.90
16995;DHT22;8614;48.522;9.206;2023-06-24T02:47:19;14.20;99.90
16995;DHT22;8614;48.522;9.206;2023-06-24T02:49:48;14.20;99.90
16995;DHT22;8614;48.522;9.206;2023-06-24T02:52:16;14.20;99.90
16995;DHT22;8614;48.522;9.206;2023-06-24T02:54:44;14.20;99.90
16995;DHT22;8614;48.522;9.206;2023-06-24T02:57:28;14.20;99.90
16995;DHT22;8614;48.522;9.206;2023-06-24T03:00:19;14.20;99.90
16995;DHT22;8614;48.522;9.206;2023-06-24T03:03:05;14.10;99.90
16995;DHT22;8614;48.522;9.206;2023-06-24T03:05:35;14.10;99.90
16995;DHT22;8614;48.522;9.206;2023-06-24T03:08:22;14.10;99.90
16995;DHT22;8614;48.522;9.206;2023-06-24T03:10:50;14.00;99.90
16995;DHT22;8614;48.522;9.206;2023-06-24T03:13:22;14.00;99.90
16995;DHT22;8614;48.522;9.206;2023-06-24T03:16:12;14.00;99.90
16995;DHT22;8614;48.522;9.206;2023-06-24T03:18:47;14.10;99.90
16995;DHT22;8614;48.522;9.206;2023-06-24T03:21:14;14.00;99.90
16995;DHT22;8614;48.522;9.206;2023-06-24T03:23:41;14.00;99.90
16995;DHT22;8614;48.522;9.206;2023-06-24T03:26:10;14.00;99.90
16995;DHT22;8614;48.522;9.206;2023-06-24T03:28:39;14.00;99.90
16995;DHT22;8614;48.522;9.206;2023-06-24T03:31:15;14.00;99.90
16995;DHT22;8614;48.522;9.206;2023-06-24T03:33:42;14.00;99.90
16995;DHT22;8614;48.522;9.206;2023-06-24T03:36:11;13.90;99.90
16995;DHT22;8614;48.522;9.206;2023-06-24T03:38:39;13.90;99.90
16995;DHT22;8614;48.522;9.206;2023-06-24T03:41:07;13.90;99.90
16995;DHT22;8614;48.522;9.206;2023-06-24T03:43:33;14.00;99.90
16995;DHT22;8614;48.522;9.206;2023-06-24T03:46:02;14.00;99.90
16995;DHT22;8614;48.522;9.206;2023-06-24T03:48:28;14.00;99.90
16995;DHT22;8614;48.522;9.206;2023-06-24T03:50:55;14.00;99.90
16995;DHT22;8614;48.522;9.206;2023-06-24T03:53:22;14.00;99.90
16995;DHT22;8614;48.522;9.206;2023-06-24T03:55:50;14.10;99.90
16995;DHT22;8614;48.522;9.206;2023-06-24T03:58:17;14.10;99.90
16995;DHT22;8614;48.522;9.206;2023-06-24T04:00:46;14.20;99.90
16995;DHT22;8614;48.522;9.206;2023-06-24T04:03:16;14.30;99.90
16995;DHT22;8614;48.522;9.206;2023-06-24T04:05:43;14.40;99.90
16995;DHT22;8614;48.522;9.206;2023-06-24T04:08:10;14.40;99.90
16995;DHT22;8614;48.522;9.206;2023-06-24T04:10:38;14.50;99.90
16995;DHT22;8614;48.522;9.206;2023-06-24T04:13:05;14.60;99.90
16995;DHT22;8614;48.522;9.206;2023-06-24T04:15:32;14.70;99.90
16995;DHT22;8614;48.522;9.206;2023-06-24T04:17:59;14.80;99.90
16995;DHT22;8614;48.522;9.206;2023-06-24T04:20:27;14.90;99.90
16995;DHT22;8614;48.522;9.206;2023-06-24T04:22:54;15.00;99.90
16995;DHT22;8614;48.522;9.206;2023-06-24T04:25:21;15.10;99.90
16995;DHT22;8614;48.522;9.206;2023-06-24T04:27:48;15.20;99.90
16995;DHT22;8614;48.522;9.206;2023-06-24T04:30:14;15.30;99.90
16995;DHT22;8614;48.522;9.206;2023-06-24T04:32:41;15.40;99.90
16995;DHT22;8614;48.522;9.206;2023-06-24T04:35:09;15.60;99.90
16995;DHT22;8614;48.522;9.206;2023-06-24T04:37:38;15.80;99.90
16995;DHT22;8614;48.522;9.206;2023-06-24T04:40:06;16.00;99.90
16995;DHT22;8614;48.522;9.206;2023-06-24T04:42:33;16.10;99.90
16995;DHT22;8614;48.522;9.206;2023-06-24T04:45:00;16.30;99.90
16995;DHT22;8614;48.522;9.206;2023-06-24T04:47:31;16.40;99.90
16995;DHT22;8614;48.522;9.206;2023-06-24T04:49:57;16.50;99.90
16995;DHT22;8614;48.522;9.206;2023-06-24T04:52:24;16.70;99.90
16995;DHT22;8614;48.522;9.206;2023-06-24T04:54:52;16.90;99.90
16995;DHT22;8614;48.522;9.206;2023-06-24T04:57:27;17.20;99.90
16995;DHT22;8614;48.522;9.206;2023-06-24T04:59:54;17.40;99.90
16995;DHT22;8614;48.522;9.206;2023-06-24T05:02:24;17.50;99.90
16995;DHT22;8614;48.522;9.206;2023-06-24T05:04:52;17.50;99.90
16995;DHT22;8614;48.522;9.206;2023-06-24T05:07:22;17.60;99.90
16995;DHT22;8614;48.522;9.206;2023-06-24T05:09:49;17.70;99.90
16995;DHT22;8614;48.522;9.206;2023-06-24T05:12:18;17.80;99.90
16995;DHT22;8614;48.522;9.206;2023-06-24T05:14:49;18.00;99.90
16995;DHT22;8614;48.522;9.206;2023-06-24T05:17:20;18.20;99.90
16995;DHT22;8614;48.522;9.206;2023-06-24T05:19:49;18.30;99.90
16995;DHT22;8614;48.522;9.206;2023-06-24T05:22:16;18.40;99.90
16995;DHT22;8614;48.522;9.206;2023-06-24T05:24:43;18.40;99.90
16995;DHT22;8614;48.522;9.206;2023-06-24T05:27:09;18.50;99.90
16995;DHT22;8614;48.522;9.206;2023-06-24T05:29:38;18.50;99.90
16995;DHT22;8614;48.522;9.206;2023-06-24T05:32:05;18.60;99.90
16995;DHT22;8614;48.522;9.206;2023-06-24T05:34:32;18.60;99.90
16995;DHT22;8614;48.522;9.206;2023-06-24T05:36:59;18.70;99.90
16995;DHT22;8614;48.522;9.206;2023-06-24T05:39:26;18.80;99.90
16995;DHT22;8614;48.522;9.206;2023-06-24T05:41:53;19.20;99.90
16995;DHT22;8614;48.522;9.206;2023-06-24T05:44:20;19.60;99.90
16995;DHT22;8614;48.522;9.206;2023-06-24T05:46:49;20.20;99.90
16995;DHT22;8614;48.522;9.206;2023-06-24T05:49:16;20.70;99.90
16995;DHT22;8614;48.522;9.206;2023-06-24T05:51:43;21.20;99.90
16995;DHT22;8614;48.522;9.206;2023-06-24T05:54:10;21.70;99.90
16995;DHT22;8614;48.522;9.206;2023-06-24T05:56:37;22.00;99.90
16995;DHT22;8614;48.522;9.206;2023-06-24T05:59:05;22.30;99.90
16995;DHT22;8614;48.522;9.206;2023-06-24T06:01:32;22.70;99.90
16995;DHT22;8614;48.522;9.206;2023-06-24T06:04:12;23.00;99.90
16995;DHT22;8614;48.522;9.206;2023-06-24T06:06:49;23.20;99.90
16995;DHT22;8614;48.522;9.206;2023-06-24T06:09:24;23.40;99.90
16995;DHT22;8614;48.522;9.206;2023-06-24T06:11:53;23.90;99.90
16995;DHT22;8614;48.522;9.206;2023-06-24T06:14:23;24.20;99.90
16995;DHT22;8614;48.522;9.206;2023-06-24T06:16:52;24.20;99.90
16995;DHT22;8614;48.522;9.206;2023-06-24T06:19:22;24.40;99.90
16995;DHT22;8614;48.522;9.206;2023-06-24T06:24:34;24.90;99.90
16995;DHT22;8614;48.522;9.206;2023-06-24T06:27:05;24.90;99.90
16995;DHT22;8614;48.522;9.206;2023-06-24T06:29:38;24.90;99.90
16995;DHT22;8614;48.522;9.206;2023-06-24T06:32:08;25.30;99.90
16995;DHT22;8614;48.522;9.206;2023-06-24T06:34:45;25.10;99.90
16995;DHT22;8614;48.522;9.206;2023-06-24T06:37:17;25.10;99.90
16995;DHT22;8614;48.522;9.206;2023-06-24T06:39:44;25.10;99.90
16995;DHT22;8614;48.522;9.206;2023-06-24T06:42:13;25.20;99.90
16995;DHT22;8614;48.522;9.206;2023-06-24T06:44:48;25.20;99.90
16995;DHT22;8614;48.522;9.206;2023-06-24T06:47:15;25.60;99.90
16995;DHT22;8614;48.522;9.206;2023-06-24T06:49:43;25.90;99.90
16995;DHT22;8614;48.522;9.206;2023-06-24T06:52:26;26.10;99.90
16995;DHT22;8614;48.522;9.206;2023-06-24T06:54:58;25.90;99.90
16995;DHT22;8614;48.522;9.206;2023-06-24T07:01:01;26.00;99.90
16995;DHT22;8614;48.522;9.206;2023-06-24T07:03:48;26.50;99.90
16995;DHT22;8614;48.522;9.206;2023-06-24T07:06:31;26.70;99.90
16995;DHT22;8614;48.522;9.206;2023-06-24T07:09:04;27.10;99.90
16995;DHT22;8614;48.522;9.206;2023-06-24T07:11:42;27.00;99.90
16995;DHT22;8614;48.522;9.206;2023-06-24T07:14:09;26.50;99.90
16995;DHT22;8614;48.522;9.206;2023-06-24T07:16:37;26.60;99.90
16995;DHT22;8614;48.522;9.206;2023-06-24T07:19:04;26.60;99.90
16995;DHT22;8614;48.522;9.206;2023-06-24T07:21:43;26.80;99.90
16995;DHT22;8614;48.522;9.206;2023-06-24T07:24:10;27.30;99.90
16995;DHT22;8614;48.522;9.206;2023-06-24T07:26:37;27.40;99.90
16995;DHT22;8614;48.522;9.206;2023-06-24T07:29:06;27.50;99.90
16995;DHT22;8614;48.522;9.206;2023-06-24T07:31:33;27.90;99.90
16995;DHT22;8614;48.522;9.206;2023-06-24T07:34:00;28.30;99.90
16995;DHT22;8614;48.522;9.206;2023-06-24T07:36:27;28.20;99.90
16995;DHT22;8614;48.522;9.206;2023-06-24T07:38:55;28.50;99.90
16995;DHT22;8614;48.522;9.206;2023-06-24T07:41:22;28.70;99.90
16995;DHT22;8614;48.522;9.206;2023-06-24T07:43:48;28.50;99.90
16995;DHT22;8614;48.522;9.206;2023-06-24T07:46:15;28.10;99.90
16995;DHT22;8614;48.522;9.206;2023-06-24T07:48:42;28.70;99.90
16995;DHT22;8614;48.522;9.206;2023-06-24T07:51:12;28.80;99.90
16995;DHT22;8614;48.522;9.206;2023-06-24T07:53:39;29.10;99.90
16995;DHT22;8614;48.522;9.206;2023-06-24T07:56:07;29.10;99.90
16995;DHT22;8614;48.522;9.206;2023-06-24T07:58:34;29.30;99.90
16995;DHT22;8614;48.522;9.206;2023-06-24T08:01:03;29.40;99.90
16995;DHT22;8614;48.522;9.206;2023-06-24T08:03:30;29.30;99.90
16995;DHT22;8614;48.522;9.206;2023-06-24T08:05:58;29.60;99.90
16995;DHT22;8614;48.522;9.206;2023-06-24T08:08:33;29.20;99.90
16995;DHT22;8614;48.522;9.206;2023-06-24T08:11:01;29.40;99.90
16995;DHT22;8614;48.522;9.206;2023-06-24T08:13:30;29.30;99.90
16995;DHT22;8614;48.522;9.206;2023-06-24T08:15:56;29.50;99.90
16995;DHT22;8614;48.522;9.206;2023-06-24T08:18:23;29.30;99.90
16995;DHT22;8614;48.522;9.206;2023-06-24T08:20:50;29.10;99.90
16995;DHT22;8614;48.522;9.206;2023-06-24T08:23:17;29.00;99.90
16995;DHT22;8614;48.522;9.206;2023-06-24T08:26:05;28.90;99.90
16995;DHT22;8614;48.522;9.206;2023-06-24T08:28:35;29.10;99.90
16995;DHT22;8614;48.522;9.206;2023-06-24T08:31:02;29.40;99.90
16995;DHT22;8614;48.522;9.206;2023-06-24T08:33:38;29.30;99.90
16995;DHT22;8614;48.522;9.206;2023-06-24T08:36:28;29.60;99.90
16995;DHT22;8614;48.522;9.206;2023-06-24T08:38:57;29.40;99.90
16995;DHT22;8614;48.522;9.206;2023-06-24T08:41:25;29.70;99.90
16995;DHT22;8614;48.522;9.206;2023-06-24T08:43:54;29.80;98.60
16995;DHT22;8614;48.522;9.206;2023-06-24T08:46:24;29.60;99.90
16995;DHT22;8614;48.522;9.206;2023-06-24T08:48:57;29.50;99.20
16995;DHT22;8614;48.522;9.206;2023-06-24T08:51:28;29.30;99.20
16995;DHT22;8614;48.522;9.206;2023-06-24T08:53:57;29.00;99.90
16995;DHT22;8614;48.522;9.206;2023-06-24T08:56:24;29.10;99.90
16995;DHT22;8614;48.522;9.206;2023-06-24T08:58:53;29.30;99.90
16995;DHT22;8614;48.522;9.206;2023-06-24T09:01:23;29.00;99.30
16995;DHT22;8614;48.522;9.206;2023-06-24T09:03:52;29.30;99.40
16995;DHT22;8614;48.522;9.206;2023-06-24T09:06:19;29.80;99.90
16995;DHT22;8614;48.522;9.206;2023-06-24T09:08:53;30.10;98.80
16995;DHT22;8614;48.522;9.206;2023-06-24T09:11:22;30.40;99.00
16995;DHT22;8614;48.522;9.206;2023-06-24T09:13:55;30.70;97.70
16995;DHT22;8614;48.522;9.206;2023-06-24T09:16:23;31.00;97.20
16995;DHT22;8614;48.522;9.206;2023-06-24T09:18:56;31.00;97.00
16995;DHT22;8614;48.522;9.206;2023-06-24T09:21:35;30.80;95.30
16995;DHT22;8614;48.522;9.206;2023-06-24T09:24:05;30.20;97.00
16995;DHT22;8614;48.522;9.206;2023-06-24T09:26:32;29.90;94.50
16995;DHT22;8614;48.522;9.206;2023-06-24T09:29:00;30.00;97.10
16995;DHT22;8614;48.522;9.206;2023-06-24T09:31:27;29.80;94.80
16995;DHT22;8614;48.522;9.206;2023-06-24T09:33:57;29.90;94.20
16995;DHT22;8614;48.522;9.206;2023-06-24T09:36:24;29.80;95.60
16995;DHT22;8614;48.522;9.206;2023-06-24T09:38:50;29.80;95.20
16995;DHT22;8614;48.522;9.206;2023-06-24T09:41:18;29.60;94.70
16995;DHT22;8614;48.522;9.206;2023-06-24T09:43:44;29.60;96.00
16995;DHT22;8614;48.522;9.206;2023-06-24T09:46:14;29.80;95.30
16995;DHT22;8614;48.522;9.206;2023-06-24T09:48:42;30.10;94.60
16995;DHT22;8614;48.522;9.206;2023-06-24T09:51:09;30.20;94.70
16995;DHT22;8614;48.522;9.206;2023-06-24T09:53:38;30.50;96.00
16995;DHT22;8614;48.522;9.206;2023-06-24T09:56:05;30.80;94.50
16995;DHT22;8614;48.522;9.206;2023-06-24T09:58:35;30.60;94.70
16995;DHT22;8614;48.522;9.206;2023-06-24T10:01:04;30.50;94.30
16995;DHT22;8614;48.522;9.206;2023-06-24T10:03:33;30.60;94.70
16995;DHT22;8614;48.522;9.206;2023-06-24T10:06:01;30.60;93.10
16995;DHT22;8614;48.522;9.206;2023-06-24T10:08:30;31.00;94.00
16995;DHT22;8614;48.522;9.206;2023-06-24T10:10:58;30.90;91.80
16995;DHT22;8614;48.522;9.206;2023-06-24T10:13:25;30.70;91.90
16995;DHT22;8614;48.522;9.206;2023-06-24T10:15:53;30.20;92.90
16995;DHT22;8614;48.522;9.206;2023-06-24T10:18:43;30.00;92.10
16995;DHT22;8614;48.522;9.206;2023-06-24T10:21:10;29.30;91.60
16995;DHT22;8614;48.522;9.206;2023-06-24T10:23:41;29.30;93.60
16995;DHT22;8614;48.522;9.206;2023-06-24T10:26:09;29.70;91.70
16995;DHT22;8614;48.522;9.206;2023-06-24T10:29:10;29.30;92.30
16995;DHT22;8614;48.522;9.206;2023-06-24T10:31:52;29.10;92.00
16995;DHT22;8614;48.522;9.206;2023-06-24T10:34:34;28.90;93.10
16995;DHT22;8614;48.522;9.206;2023-06-24T10:37:09;29.30;93.20
16995;DHT22;8614;48.522;9.206;2023-06-24T10:39:40;29.10;92.30
16995;DHT22;8614;48.522;9.206;2023-06-24T10:42:41;29.00;90.90
16995;DHT22;8614;48.522;9.206;2023-06-24T10:45:19;28.40;92.60
16995;DHT22;8614;48.522;9.206;2023-06-24T10:47:47;28.40;92.00
16995;DHT22;8614;48.522;9.206;2023-06-24T10:50:18;28.50;91.30
16995;DHT22;8614;48.522;9.206;2023-06-24T10:52:46;28.30;91.00
16995;DHT22;8614;48.522;9.206;2023-06-24T10:55:14;28.50;93.10
16995;DHT22;8614;48.522;9.206;2023-06-24T10:57:42;28.70;92.90
16995;DHT22;8614;48.522;9.206;2023-06-24T11:00:10;28.80;91.60
16995;DHT22;8614;48.522;9.206;2023-06-24T11:02:37;28.70;92.70
16995;DHT22;8614;48.522;9.206;2023-06-24T11:05:05;28.80;92.40
16995;DHT22;8614;48.522;9.206;2023-06-24T11:07:35;28.80;92.80
16995;DHT22;8614;48.522;9.206;2023-06-24T11:10:04;28.80;92.80
16995;DHT22;8614;48.522;9.206;2023-06-24T11:12:32;28.40;87.90
16995;DHT22;8614;48.522;9.206;2023-06-24T11:15:00;28.40;88.60
16995;DHT22;8614;48.522;9.206;2023-06-24T11:17:27;28.60;90.40
16995;DHT22;8614;48.522;9.206;2023-06-24T11:19:55;28.60;90.00
16995;DHT22;8614;48.522;9.206;2023-06-24T11:22:24;28.60;89.40
16995;DHT22;8614;48.522;9.206;2023-06-24T11:24:54;28.40;90.00
16995;DHT22;8614;48.522;9.206;2023-06-24T11:27:24;28.40;90.70
16995;DHT22;8614;48.522;9.206;2023-06-24T11:29:52;28.20;90.40
16995;DHT22;8614;48.522;9.206;2023-06-24T11:32:19;28.30;91.40
16995;DHT22;8614;48.522;9.206;2023-06-24T11:34:47;28.00;91.00
16995;DHT22;8614;48.522;9.206;2023-06-24T11:37:14;28.00;91.10
16995;DHT22;8614;48.522;9.206;2023-06-24T11:39:41;28.00;90.50
16995;DHT22;8614;48.522;9.206;2023-06-24T11:42:10;28.40;91.60
16995;DHT22;8614;48.522;9.206;2023-06-24T11:44:41;28.60;91.60
16995;DHT22;8614;48.522;9.206;2023-06-24T11:47:10;28.60;90.30
16995;DHT22;8614;48.522;9.206;2023-06-24T11:49:50;28.30;87.20
16995;DHT22;8614;48.522;9.206;2023-06-24T11:52:17;27.80;87.90
16995;DHT22;8614;48.522;9.206;2023-06-24T11:54:45;27.30;88.20
16995;DHT22;8614;48.522;9.206;2023-06-24T11:57:18;27.30;87.50
16995;DHT22;8614;48.522;9.206;2023-06-24T11:59:44;27.30;89.20
16995;DHT22;8614;48.522;9.206;2023-06-24T12:02:13;27.30;89.70
16995;DHT22;8614;48.522;9.206;2023-06-24T12:04:43;27.20;89.30
16995;DHT22;8614;48.522;9.206;2023-06-24T12:07:11;27.30;88.40
16995;DHT22;8614;48.522;9.206;2023-06-24T12:09:38;27.30;90.40
16995;DHT22;8614;48.522;9.206;2023-06-24T12:12:05;27.60;91.10
16995;DHT22;8614;48.522;9.206;2023-06-24T12:14:34;27.90;90.80
16995;DHT22;8614;48.522;9.206;2023-06-24T12:17:01;28.00;88.80
16995;DHT22;8614;48.522;9.206;2023-06-24T12:19:28;27.70;90.60
16995;DHT22;8614;48.522;9.206;2023-06-24T12:21:54;27.50;90.00
16995;DHT22;8614;48.522;9.206;2023-06-24T12:24:22;27.30;90.40
16995;DHT22;8614;48.522;9.206;2023-06-24T12:26:48;27.20;91.20
16995;DHT22;8614;48.522;9.206;2023-06-24T12:29:16;27.20;91.80
16995;DHT22;8614;48.522;9.206;2023-06-24T12:31:45;26.80;89.90
16995;DHT22;8614;48.522;9.206;2023-06-24T12:34:11;26.70;90.90
16995;DHT22;8614;48.522;9.206;2023-06-24T12:36:38;26.80;91.40
16995;DHT22;8614;48.522;9.206;2023-06-24T12:39:05;26.90;91.10
16995;DHT22;8614;48.522;9.206;2023-06-24T12:41:32;26.90;91.40
16995;DHT22;8614;48.522;9.206;2023-06-24T12:44:00;27.00;90.60
16995;DHT22;8614;48.522;9.206;2023-06-24T12:46:26;27.10;92.10
16995;DHT22;8614;48.522;9.206;2023-06-24T12:48:54;27.20;90.90
16995;DHT22;8614;48.522;9.206;2023-06-24T12:51:22;27.00;90.90
16995;DHT22;8614;48.522;9.206;2023-06-24T12:53:49;26.80;90.90
16995;DHT22;8614;48.522;9.206;2023-06-24T12:56:15;26.60;89.90
16995;DHT22;8614;48.522;9.206;2023-06-24T12:58:42;26.50;90.70
16995;DHT22;8614;48.522;9.206;2023-06-24T13:01:09;26.70;92.20
16995;DHT22;8614;48.522;9.206;2023-06-24T13:03:36;26.60;90.10
16995;DHT22;8614;48.522;9.206;2023-06-24T13:06:04;26.70;91.20
16995;DHT22;8614;48.522;9.206;2023-06-24T13:08:31;26.60;89.90
16995;DHT22;8614;48.522;9.206;2023-06-24T13:10:58;26.60;90.00
16995;DHT22;8614;48.522;9.206;2023-06-24T13:13:24;26.60;90.60
16995;DHT22;8614;48.522;9.206;2023-06-24T13:15:51;26.70;91.20
16995;DHT22;8614;48.522;9.206;2023-06-24T13:18:18;26.70;91.00
16995;DHT22;8614;48.522;9.206;2023-06-24T13:20:45;26.70;90.40
16995;DHT22;8614;48.522;9.206;2023-06-24T13:23:13;26.70;91.10
16995;DHT22;8614;48.522;9.206;2023-06-24T13:25:40;26.70;90.60
16995;DHT22;8614;48.522;9.206;2023-06-24T13:28:06;26.60;88.60
16995;DHT22;8614;48.522;9.206;2023-06-24T13:30:33;26.50;90.00
16995;DHT22;8614;48.522;9.206;2023-06-24T13:33:00;26.70;91.50
16995;DHT22;8614;48.522;9.206;2023-06-24T13:35:27;26.60;91.00
16995;DHT22;8614;48.522;9.206;2023-06-24T13:37:53;26.70;90.60
16995;DHT22;8614;48.522;9.206;2023-06-24T13:40:22;26.70;91.20
16995;DHT22;8614;48.522;9.206;2023-06-24T13:42:48;26.80;91.70
16995;DHT22;8614;48.522;9.206;2023-06-24T13:45:15;26.90;91.00
16995;DHT22;8614;48.522;9.206;2023-06-24T13:47:42;26.90;91.30
16995;DHT22;8614;48.522;9.206;2023-06-24T13:50:10;26.90;91.30
16995;DHT22;8614;48.522;9.206;2023-06-24T13:52:37;26.80;89.70
16995;DHT22;8614;48.522;9.206;2023-06-24T13:55:05;26.50;87.80
16995;DHT22;8614;48.522;9.206;2023-06-24T13:57:33;26.50;90.10
16995;DHT22;8614;48.522;9.206;2023-06-24T14:00:00;26.50;90.80
16995;DHT22;8614;48.522;9.206;2023-06-24T14:02:26;26.40;89.10
16995;DHT22;8614;48.522;9.206;2023-06-24T14:04:53;26.40;90.20
16995;DHT22;8614;48.522;9.206;2023-06-24T14:07:20;26.30;88.60
16995;DHT22;8614;48.522;9.206;2023-06-24T14:09:47;26.20;88.80
16995;DHT22;8614;48.522;9.206;2023-06-24T14:12:14;26.20;90.60
16995;DHT22;8614;48.522;9.206;2023-06-24T14:14:42;26.20;90.30
16995;DHT22;8614;48.522;9.206;2023-06-24T14:17:08;26.30;90.20
16995;DHT22;8614;48.522;9.206;2023-06-24T14:19:37;26.30;90.30
16995;DHT22;8614;48.522;9.206;2023-06-24T14:22:05;26.20;90.90
16995;DHT22;8614;48.522;9.206;2023-06-24T14:24:32;26.30;90.40
16995;DHT22;8614;48.522;9.206;2023-06-24T14:26:59;26.20;90.30
16995;DHT22;8614;48.522;9.206;2023-06-24T14:29:26;26.30;91.40
16995;DHT22;8614;48.522;9.206;2023-06-24T14:31:54;26.20;90.50
16995;DHT22;8614;48.522;9.206;2023-06-24T14:34:23;26.20;90.90
16995;DHT22;8614;48.522;9.206;2023-06-24T14:36:49;26.20;91.30
16995;DHT22;8614;48.522;9.206;2023-06-24T14:39:16;26.20;90.10
16995;DHT22;8614;48.522;9.206;2023-06-24T14:41:43;26.10;90.00
16995;DHT22;8614;48.522;9.206;2023-06-24T14:44:10;26.10;90.40
16995;DHT22;8614;48.522;9.206;2023-06-24T14:46:37;26.10;90.60
16995;DHT22;8614;48.522;9.206;2023-06-24T14:49:05;26.20;91.60
16995;DHT22;8614;48.522;9.206;2023-06-24T14:51:32;26.20;90.80
16995;DHT22;8614;48.522;9.206;2023-06-24T14:53:59;26.20;90.80
16995;DHT22;8614;48.522;9.206;2023-06-24T14:56:26;26.20;91.60
16995;DHT22;8614;48.522;9.206;2023-06-24T14:58:53;26.20;90.60
16995;DHT22;8614;48.522;9.206;2023-06-24T15:01:20;26.30;91.70
16995;DHT22;8614;48.522;9.206;2023-06-24T15:03:46;26.30;91.60
16995;DHT22;8614;48.522;9.206;2023-06-24T15:06:15;26.30;90.30
16995;DHT22;8614;48.522;9.206;2023-06-24T15:08:41;26.20;90.80
16995;DHT22;8614;48.522;9.206;2023-06-24T15:11:08;26.30;90.40
16995;DHT22;8614;48.522;9.206;2023-06-24T15:13:35;26.30;90.40
16995;DHT22;8614;48.522;9.206;2023-06-24T15:16:02;26.20;90.30
16995;DHT22;8614;48.522;9.206;2023-06-24T15:18:29;26.20;90.10
16995;DHT22;8614;48.522;9.206;2023-06-24T15:20:55;26.20;90.50
16995;DHT22;8614;48.522;9.206;2023-06-24T15:23:24;26.20;88.90
16995;DHT22;8614;48.522;9.206;2023-06-24T15:25:52;26.10;90.00
16995;DHT22;8614;48.522;9.206;2023-06-24T15:28:18;26.10;90.90
16995;DHT22;8614;48.522;9.206;2023-06-24T15:30:45;26.10;90.60
16995;DHT22;8614;48.522;9.206;2023-06-24T15:33:12;26.00;90.50
16995;DHT22;8614;48.522;9.206;2023-06-24T15:35:39;26.10;91.00
16995;DHT22;8614;48.522;9.206;2023-06-24T15:38:05;26.20;91.50
16995;DHT22;8614;48.522;9.206;2023-06-24T15:40:34;26.20;90.40
16995;DHT22;8614;48.522;9.206;2023-06-24T15:43:00;26.20;90.70
16995;DHT22;8614;48.522;9.206;2023-06-24T15:45:28;26.20;90.80
16995;DHT22;8614;48.522;9.206;2023-06-24T15:47:54;26.20;90.80
16995;DHT22;8614;48.522;9.206;2023-06-24T15:50:21;26.20;90.50
16995;DHT22;8614;48.522;9.206;2023-06-24T15:52:48;26.10;90.80
16995;DHT22;8614;48.522;9.206;2023-06-24T15:55:15;26.20;90.40
16995;DHT22;8614;48.522;9.206;2023-06-24T15:57:43;26.20;90.70
16995;DHT22;8614;48.522;9.206;2023-06-24T16:00:12;26.10;90.70
16995;DHT22;8614;48.522;9.206;2023-06-24T16:02:39;26.10;90.50
16995;DHT22;8614;48.522;9.206;2023-06-24T16:05:06;26.20;90.90